createdAt,value
2023-03-18T00:00:19.192Z,13.46
2023-03-18T00:05:21.896Z,13.44
2023-03-18T00:10:25.005Z,13.39
2023-03-18T00:15:29.456Z,13.36
2023-03-18T00:20:39.317Z,13.23
2023-03-18T00:25:43.822Z,13.01
2023-03-18T00:30:49.492Z,12.92
2023-03-18T00:35:55.358Z,13.17
2023-03-18T00:41:04.251Z,13.14
2023-03-18T00:46:08.310Z,12.83
2023-03-18T00:51:13.895Z,13.06
2023-03-18T00:56:18.141Z,12.09
2023-03-18T01:01:23.285Z,11.51
2023-03-18T01:06:29.349Z,13.08
2023-03-18T01:11:33.276Z,12.79
2023-03-18T01:16:37.558Z,13.00
2023-03-18T01:21:40.272Z,12.50
2023-03-18T01:26:43.036Z,13.01
2023-03-18T01:31:47.272Z,12.35
2023-03-18T01:36:52.470Z,12.59
2023-03-18T01:41:56.995Z,12.77
2023-03-18T01:47:07.815Z,12.83
2023-03-18T01:52:21.913Z,12.91
2023-03-18T01:57:25.305Z,12.60
2023-03-18T02:02:29.976Z,12.64
2023-03-18T02:07:36.702Z,12.66
2023-03-18T02:12:43.890Z,12.68
2023-03-18T02:17:56.063Z,12.62
2023-03-18T02:23:05.171Z,12.59
2023-03-18T02:28:13.361Z,12.01
2023-03-18T02:33:19.508Z,12.55
2023-03-18T02:38:22.894Z,12.40
2023-03-18T02:43:29.529Z,12.51
2023-03-18T02:48:38.636Z,12.47
2023-03-18T02:53:41.719Z,12.58
2023-03-18T02:58:46.839Z,12.52
2023-03-18T03:03:53.442Z,12.53
2023-03-18T03:08:57.171Z,12.37
2023-03-18T03:14:02.991Z,12.09
2023-03-18T03:19:08.146Z,12.40
2023-03-18T03:24:13.779Z,12.33
2023-03-18T03:29:18.347Z,12.27
2023-03-18T03:34:21.148Z,12.27
2023-03-18T03:39:24.369Z,12.29
2023-03-18T03:44:30.788Z,12.05
2023-03-18T03:49:33.773Z,12.39
2023-03-18T03:54:38.039Z,11.61
2023-03-18T03:59:42.193Z,12.39
2023-03-18T04:04:51.570Z,12.39
2023-03-18T04:10:01.583Z,12.40
2023-03-18T04:15:09.541Z,12.39
2023-03-18T04:20:13.882Z,12.46
2023-03-18T04:25:16.714Z,11.87
2023-03-18T04:30:23.211Z,12.44
2023-03-18T04:35:39.272Z,12.30
2023-03-18T04:40:42.832Z,12.00
2023-03-18T04:45:49.195Z,12.40
2023-03-18T04:50:52.678Z,12.19
2023-03-18T04:56:00.673Z,12.26
2023-03-18T05:01:14.024Z,11.94
2023-03-18T05:06:23.001Z,11.47
2023-03-18T05:11:41.656Z,11.98
2023-03-18T05:16:55.183Z,11.61
2023-03-18T05:21:58.103Z,12.10
2023-03-18T05:27:01.517Z,12.26
2023-03-18T05:32:16.858Z,12.29
2023-03-18T05:37:21.752Z,12.26
2023-03-18T05:42:38.631Z,12.33
2023-03-18T05:47:51.960Z,12.25
2023-03-18T05:52:57.724Z,12.12
2023-03-18T05:58:03.841Z,12.22
2023-03-18T06:03:10.139Z,12.19
2023-03-18T06:08:13.287Z,11.69
2023-03-18T06:13:16.391Z,12.35
2023-03-18T06:18:20.703Z,12.43
2023-03-18T06:23:24.617Z,12.41
2023-03-18T06:28:30.771Z,12.16
2023-03-18T06:33:38.303Z,12.23
2023-03-18T06:38:43.815Z,12.26
2023-03-18T06:43:50.471Z,12.34
2023-03-18T06:48:56.925Z,12.41
2023-03-18T06:54:05.915Z,12.67
2023-03-18T06:59:09.890Z,12.67
2023-03-18T07:04:15.318Z,12.50
2023-03-18T07:09:18.734Z,12.50
2023-03-18T07:14:30.807Z,12.45
2023-03-18T07:19:36.135Z,12.64
2023-03-18T07:24:40.265Z,12.33
2023-03-18T07:29:43.641Z,12.15
2023-03-18T07:34:48.430Z,12.72
2023-03-18T07:39:53.160Z,12.79
2023-03-18T07:44:56.239Z,12.84
2023-03-18T07:50:00.996Z,12.72
2023-03-18T07:55:05.157Z,12.97
2023-03-18T08:00:12.336Z,12.86
2023-03-18T08:05:20.081Z,13.09
2023-03-18T08:11:18.223Z,13.15
2023-03-18T08:16:21.062Z,12.83
2023-03-18T08:21:27.280Z,13.49
2023-03-18T08:26:30.261Z,13.60
2023-03-18T08:31:33.122Z,13.25
2023-03-18T08:36:37.255Z,12.44
2023-03-18T08:41:46.614Z,13.68
2023-03-18T08:46:51.478Z,13.73
2023-03-18T08:51:56.538Z,13.75
2023-03-18T08:57:00.542Z,13.43
2023-03-18T09:02:06.024Z,13.78
2023-03-18T09:07:10.398Z,13.88
2023-03-18T09:12:13.994Z,13.94
2023-03-18T09:17:16.925Z,14.24
2023-03-18T09:22:21.668Z,14.67
2023-03-18T09:27:24.503Z,14.84
2023-03-18T09:32:27.239Z,15.01
2023-03-18T09:37:31.682Z,15.03
2023-03-18T09:42:56.582Z,14.98
2023-03-18T09:48:14.697Z,14.76
2023-03-18T09:53:24.414Z,14.96
2023-03-18T09:58:32.091Z,14.92
2023-03-18T10:03:40.673Z,15.05
2023-03-18T10:08:57.974Z,14.69
2023-03-18T10:14:24.717Z,15.21
2023-03-18T10:19:28.804Z,15.27
2023-03-18T10:24:38.886Z,15.32
2023-03-18T10:29:46.478Z,15.34
2023-03-18T10:35:06.117Z,15.17
2023-03-18T10:40:15.883Z,15.43
2023-03-18T10:45:25.938Z,15.47
2023-03-18T10:50:35.162Z,15.05
2023-03-18T10:55:57.539Z,15.63
2023-03-18T11:01:00.880Z,15.84
2023-03-18T11:06:05.695Z,16.03
2023-03-18T11:11:32.851Z,16.04
2023-03-18T11:16:39.910Z,16.25
2023-03-18T11:21:42.772Z,16.38
2023-03-18T11:26:54.033Z,16.63
2023-03-18T11:31:58.608Z,16.71
2023-03-18T11:37:05.935Z,16.74
2023-03-18T11:42:21.911Z,17.09
2023-03-18T11:47:31.747Z,16.67
2023-03-18T11:52:45.406Z,17.14
2023-03-18T11:58:24.225Z,16.72
2023-03-18T12:04:13.708Z,17.34
2023-03-18T12:09:22.698Z,17.31
2023-03-18T12:14:35.712Z,17.17
2023-03-18T12:20:12.538Z,16.95
2023-03-18T12:25:40.702Z,17.29
2023-03-18T12:31:45.820Z,16.54
2023-03-18T12:37:03.410Z,17.83
2023-03-18T12:42:14.333Z,18.07
2023-03-18T12:47:21.920Z,17.87
2023-03-18T12:52:33.765Z,18.01
2023-03-18T12:57:42.813Z,17.80
2023-03-18T13:02:53.168Z,17.85
2023-03-18T13:08:26.510Z,17.84
2023-03-18T13:13:34.771Z,16.12
2023-03-18T13:18:43.488Z,16.77
2023-03-18T13:24:11.782Z,17.27
2023-03-18T13:29:29.689Z,15.00
2023-03-18T13:34:58.012Z,16.66
2023-03-18T13:40:19.157Z,17.32
2023-03-18T13:45:26.131Z,17.55
2023-03-18T13:50:39.609Z,17.03
2023-03-18T13:55:49.717Z,17.17
2023-03-18T14:01:28.393Z,17.00
2023-03-18T14:06:48.375Z,16.68
2023-03-18T14:11:54.197Z,15.55
2023-03-18T14:16:57.958Z,16.36
2023-03-18T14:22:08.526Z,15.50
2023-03-18T14:27:24.584Z,15.22
2023-03-18T14:32:39.538Z,16.40
2023-03-18T14:38:04.049Z,15.82
2023-03-18T14:43:18.335Z,14.66
2023-03-18T14:48:29.195Z,15.98
2023-03-18T14:53:36.647Z,16.64
2023-03-18T14:58:46.917Z,17.47
2023-03-18T15:03:54.656Z,16.07
2023-03-18T15:09:05.520Z,17.10
2023-03-18T15:14:14.093Z,17.59
2023-03-18T15:19:21.976Z,17.43
2023-03-18T15:24:29.064Z,16.92
2023-03-18T15:29:37.080Z,17.33
2023-03-18T15:34:43.945Z,16.90
2023-03-18T15:39:48.537Z,17.25
2023-03-18T15:44:59.747Z,16.25
2023-03-18T15:50:16.036Z,16.66
2023-03-18T15:55:29.130Z,16.53
2023-03-18T16:00:38.542Z,16.84
2023-03-18T16:05:41.479Z,16.59
2023-03-18T16:10:44.720Z,16.15
2023-03-18T16:15:49.118Z,16.57
2023-03-18T16:20:53.822Z,16.32
2023-03-18T16:25:56.959Z,16.49
2023-03-18T16:31:02.146Z,16.55
2023-03-18T16:36:06.815Z,15.66
2023-03-18T16:41:11.003Z,16.15
2023-03-18T16:46:19.647Z,16.23
2023-03-18T16:51:24.723Z,15.94
2023-03-18T16:56:29.070Z,15.92
2023-03-18T17:01:33.815Z,15.97
2023-03-18T17:06:36.888Z,15.86
2023-03-18T17:11:41.769Z,15.74
2023-03-18T17:16:46.192Z,15.50
2023-03-18T17:21:54.622Z,15.52
2023-03-18T17:27:01.293Z,14.93
2023-03-18T17:32:12.400Z,15.04
2023-03-18T17:37:16.501Z,15.07
2023-03-18T17:42:30.839Z,15.17
2023-03-18T17:47:35.295Z,14.45
2023-03-18T17:52:41.214Z,15.02
2023-03-18T17:57:46.843Z,15.00
2023-03-18T18:02:54.620Z,14.27
2023-03-18T18:07:58.087Z,14.33
2023-03-18T18:13:19.764Z,13.52
2023-03-18T18:18:29.038Z,14.44
2023-03-18T18:23:33.559Z,14.42
2023-03-18T18:28:38.533Z,13.43
2023-03-18T18:33:51.818Z,12.99
2023-03-18T18:38:56.666Z,13.76
2023-03-18T18:44:07.818Z,14.49
2023-03-18T18:49:24.644Z,14.16
2023-03-18T18:54:32.142Z,14.33
2023-03-18T18:59:34.935Z,14.23
2023-03-18T19:04:47.633Z,14.19
2023-03-18T19:10:15.676Z,14.06
2023-03-18T19:15:22.460Z,14.15
2023-03-18T19:20:30.119Z,13.86
2023-03-18T19:25:35.495Z,14.05
2023-03-18T19:30:39.792Z,13.45
2023-03-18T19:35:48.556Z,13.00
2023-03-18T19:40:54.663Z,13.80
2023-03-18T19:45:59.279Z,14.01
2023-03-18T19:51:04.025Z,13.20
2023-03-18T19:56:10.612Z,12.48
2023-03-18T20:01:13.997Z,13.16
2023-03-18T20:06:20.137Z,13.36
2023-03-18T20:11:26.267Z,13.23
2023-03-18T20:16:32.057Z,13.36
2023-03-18T20:21:38.052Z,12.84
2023-03-18T20:26:41.104Z,12.13
2023-03-18T20:31:45.763Z,12.90
2023-03-18T20:36:50.299Z,12.69
2023-03-18T20:41:54.669Z,12.31
2023-03-18T20:46:57.959Z,13.60
2023-03-18T20:52:26.309Z,12.91
2023-03-18T20:57:29.533Z,12.36
2023-03-18T21:02:39.821Z,13.58
2023-03-18T21:07:49.415Z,12.34
2023-03-18T21:12:56.331Z,11.98
2023-03-18T21:18:01.279Z,12.60
2023-03-18T21:23:05.539Z,11.81
2023-03-18T21:28:11.890Z,13.22
2023-03-18T21:33:58.768Z,12.17
2023-03-18T21:39:08.124Z,13.17
2023-03-18T21:44:13.681Z,12.83
2023-03-18T21:49:21.838Z,13.28
2023-03-18T21:54:28.120Z,11.80
2023-03-18T21:59:33.337Z,13.20
2023-03-18T22:04:37.251Z,12.73
2023-03-18T22:09:42.919Z,12.76
2023-03-18T22:14:47.611Z,13.14
2023-03-18T22:19:51.925Z,13.08
2023-03-18T22:24:56.594Z,13.08
2023-03-18T22:30:03.291Z,12.89
2023-03-18T22:35:15.109Z,13.02
2023-03-18T22:40:23.399Z,12.72
2023-03-18T22:45:35.326Z,12.00
2023-03-18T22:50:38.938Z,13.02
2023-03-18T22:55:43.316Z,11.96
2023-03-18T23:00:49.172Z,12.15
2023-03-18T23:05:54.709Z,13.08
2023-03-18T23:11:09.041Z,11.53
2023-03-18T23:16:18.372Z,12.37
2023-03-18T23:21:24.200Z,13.22
2023-03-18T23:26:29.892Z,13.30
2023-03-18T23:31:41.308Z,12.06
2023-03-18T23:36:49.055Z,13.41
2023-03-18T23:41:58.181Z,13.29
2023-03-18T23:47:01.392Z,11.63
2023-03-18T23:52:08.256Z,12.49
2023-03-18T23:57:19.095Z,13.20
